sensor_id;sensor_type;location;lat;lon;timestamp;P1;durP1;ratioP1;P2;durP2;ratioP2
39050;SDS011;24805;55.852;37.644;2023-07-16T00:02:56;6.72;;;4.15;;
39050;SDS011;24805;55.852;37.644;2023-07-16T00:07:59;5.15;;;3.47;;
39050;SDS011;24805;55.852;37.644;2023-07-16T00:13:01;4.53;;;3.70;;
39050;SDS011;24805;55.852;37.644;2023-07-16T00:18:04;5.32;;;4.00;;
39050;SDS011;24805;55.852;37.644;2023-07-16T00:23:07;8.75;;;3.90;;
39050;SDS011;24805;55.852;37.644;2023-07-16T00:28:09;7.65;;;4.13;;
39050;SDS011;24805;55.852;37.644;2023-07-16T00:33:13;6.50;;;4.05;;
39050;SDS011;24805;55.852;37.644;2023-07-16T00:38:19;5.55;;;3.85;;
39050;SDS011;24805;55.852;37.644;2023-07-16T00:43:21;5.35;;;3.50;;
39050;SDS011;24805;55.852;37.644;2023-07-16T00:48:23;5.43;;;3.97;;
39050;SDS011;24805;55.852;37.644;2023-07-16T00:53:26;4.20;;;3.60;;
39050;SDS011;24805;55.852;37.644;2023-07-16T00:58:29;3.97;;;3.28;;
39050;SDS011;24805;55.852;37.644;2023-07-16T01:03:31;5.85;;;3.47;;
39050;SDS011;24805;55.852;37.644;2023-07-16T01:13:48;4.63;;;3.45;;
39050;SDS011;24805;55.852;37.644;2023-07-16T01:18:50;6.03;;;3.10;;
39050;SDS011;24805;55.852;37.644;2023-07-16T01:24:00;4.50;;;3.47;;
39050;SDS011;24805;55.852;37.644;2023-07-16T01:34:32;3.45;;;3.03;;
39050;SDS011;24805;55.852;37.644;2023-07-16T01:39:36;4.72;;;3.30;;
39050;SDS011;24805;55.852;37.644;2023-07-16T01:44:39;7.70;;;3.60;;
39050;SDS011;24805;55.852;37.644;2023-07-16T01:49:41;3.42;;;3.08;;
39050;SDS011;24805;55.852;37.644;2023-07-16T01:54:44;6.35;;;3.55;;
39050;SDS011;24805;55.852;37.644;2023-07-16T01:59:46;5.00;;;3.55;;
39050;SDS011;24805;55.852;37.644;2023-07-16T02:04:48;5.90;;;3.72;;
39050;SDS011;24805;55.852;37.644;2023-07-16T02:09:52;4.10;;;3.70;;
39050;SDS011;24805;55.852;37.644;2023-07-16T02:14:54;4.22;;;3.50;;
39050;SDS011;24805;55.852;37.644;2023-07-16T02:19:57;4.13;;;3.53;;
39050;SDS011;24805;55.852;37.644;2023-07-16T02:24:59;5.82;;;3.72;;
39050;SDS011;24805;55.852;37.644;2023-07-16T02:30:01;6.35;;;3.63;;
39050;SDS011;24805;55.852;37.644;2023-07-16T02:35:05;4.93;;;3.70;;
39050;SDS011;24805;55.852;37.644;2023-07-16T02:40:08;7.38;;;4.03;;
39050;SDS011;24805;55.852;37.644;2023-07-16T02:45:10;5.57;;;3.90;;
39050;SDS011;24805;55.852;37.644;2023-07-16T02:50:12;5.00;;;3.63;;
39050;SDS011;24805;55.852;37.644;2023-07-16T02:55:14;6.35;;;3.65;;
39050;SDS011;24805;55.852;37.644;2023-07-16T03:00:17;7.13;;;4.05;;
39050;SDS011;24805;55.852;37.644;2023-07-16T03:05:19;8.00;;;3.65;;
39050;SDS011;24805;55.852;37.644;2023-07-16T03:10:22;6.55;;;3.60;;
39050;SDS011;24805;55.852;37.644;2023-07-16T03:15:24;5.88;;;3.65;;
39050;SDS011;24805;55.852;37.644;2023-07-16T03:20:26;4.38;;;3.58;;
39050;SDS011;24805;55.852;37.644;2023-07-16T03:25:28;7.82;;;3.53;;
39050;SDS011;24805;55.852;37.644;2023-07-16T03:30:31;4.22;;;3.17;;
39050;SDS011;24805;55.852;37.644;2023-07-16T03:35:35;3.80;;;3.25;;
39050;SDS011;24805;55.852;37.644;2023-07-16T03:40:37;6.20;;;3.47;;
39050;SDS011;24805;55.852;37.644;2023-07-16T03:45:41;3.58;;;3.03;;
39050;SDS011;24805;55.852;37.644;2023-07-16T03:50:43;4.97;;;3.33;;
39050;SDS011;24805;55.852;37.644;2023-07-16T03:55:46;6.75;;;3.55;;
39050;SDS011;24805;55.852;37.644;2023-07-16T04:00:49;5.20;;;3.70;;
39050;SDS011;24805;55.852;37.644;2023-07-16T04:05:51;4.88;;;3.72;;
39050;SDS011;24805;55.852;37.644;2023-07-16T04:10:53;5.30;;;4.07;;
39050;SDS011;24805;55.852;37.644;2023-07-16T04:15:57;5.15;;;3.47;;
39050;SDS011;24805;55.852;37.644;2023-07-16T04:21:00;4.88;;;3.88;;
39050;SDS011;24805;55.852;37.644;2023-07-16T04:26:02;8.15;;;3.88;;
39050;SDS011;24805;55.852;37.644;2023-07-16T04:31:04;4.53;;;3.55;;
39050;SDS011;24805;55.852;37.644;2023-07-16T04:36:07;5.85;;;3.95;;
39050;SDS011;24805;55.852;37.644;2023-07-16T04:41:09;4.07;;;3.67;;
39050;SDS011;24805;55.852;37.644;2023-07-16T04:46:11;4.00;;;3.63;;
39050;SDS011;24805;55.852;37.644;2023-07-16T04:51:14;6.57;;;4.70;;
39050;SDS011;24805;55.852;37.644;2023-07-16T04:56:16;7.32;;;4.60;;
39050;SDS011;24805;55.852;37.644;2023-07-16T05:01:19;6.15;;;4.90;;
39050;SDS011;24805;55.852;37.644;2023-07-16T05:06:22;5.93;;;4.47;;
39050;SDS011;24805;55.852;37.644;2023-07-16T05:11:24;4.68;;;4.15;;
39050;SDS011;24805;55.852;37.644;2023-07-16T05:16:27;10.10;;;5.05;;
39050;SDS011;24805;55.852;37.644;2023-07-16T05:21:30;6.88;;;4.80;;
39050;SDS011;24805;55.852;37.644;2023-07-16T05:26:32;6.78;;;5.03;;
39050;SDS011;24805;55.852;37.644;2023-07-16T05:31:34;7.63;;;5.03;;
39050;SDS011;24805;55.852;37.644;2023-07-16T05:36:37;10.32;;;5.68;;
39050;SDS011;24805;55.852;37.644;2023-07-16T05:41:39;9.65;;;5.25;;
39050;SDS011;24805;55.852;37.644;2023-07-16T05:46:42;8.27;;;5.57;;
39050;SDS011;24805;55.852;37.644;2023-07-16T05:51:45;8.38;;;5.50;;
39050;SDS011;24805;55.852;37.644;2023-07-16T05:56:47;7.63;;;4.70;;
39050;SDS011;24805;55.852;37.644;2023-07-16T06:01:49;6.40;;;4.95;;
39050;SDS011;24805;55.852;37.644;2023-07-16T06:06:51;5.60;;;4.90;;
39050;SDS011;24805;55.852;37.644;2023-07-16T06:11:53;9.88;;;5.03;;
39050;SDS011;24805;55.852;37.644;2023-07-16T06:16:55;5.53;;;5.03;;
39050;SDS011;24805;55.852;37.644;2023-07-16T06:21:58;6.20;;;5.47;;
39050;SDS011;24805;55.852;37.644;2023-07-16T06:27:00;7.15;;;4.88;;
39050;SDS011;24805;55.852;37.644;2023-07-16T06:32:03;6.65;;;4.65;;
39050;SDS011;24805;55.852;37.644;2023-07-16T06:37:05;8.50;;;4.20;;
39050;SDS011;24805;55.852;37.644;2023-07-16T06:42:07;5.28;;;4.25;;
39050;SDS011;24805;55.852;37.644;2023-07-16T06:47:10;8.15;;;5.18;;
39050;SDS011;24805;55.852;37.644;2023-07-16T06:52:19;5.25;;;4.60;;
39050;SDS011;24805;55.852;37.644;2023-07-16T06:57:23;5.00;;;3.63;;
39050;SDS011;24805;55.852;37.644;2023-07-16T07:02:25;4.38;;;3.97;;
39050;SDS011;24805;55.852;37.644;2023-07-16T07:07:27;5.35;;;4.20;;
39050;SDS011;24805;55.852;37.644;2023-07-16T07:12:30;4.18;;;3.35;;
39050;SDS011;24805;55.852;37.644;2023-07-16T07:17:39;5.15;;;3.25;;
39050;SDS011;24805;55.852;37.644;2023-07-16T07:22:41;7.00;;;3.22;;
39050;SDS011;24805;55.852;37.644;2023-07-16T07:27:44;4.68;;;3.25;;
39050;SDS011;24805;55.852;37.644;2023-07-16T07:32:49;3.35;;;3.00;;
39050;SDS011;24805;55.852;37.644;2023-07-16T07:37:51;4.50;;;3.22;;
39050;SDS011;24805;55.852;37.644;2023-07-16T07:42:53;3.70;;;2.78;;
39050;SDS011;24805;55.852;37.644;2023-07-16T07:47:56;4.40;;;4.00;;
39050;SDS011;24805;55.852;37.644;2023-07-16T07:52:58;3.47;;;3.17;;
39050;SDS011;24805;55.852;37.644;2023-07-16T07:58:00;3.70;;;2.70;;
39050;SDS011;24805;55.852;37.644;2023-07-16T08:03:02;4.18;;;3.25;;
39050;SDS011;24805;55.852;37.644;2023-07-16T08:08:05;4.95;;;3.20;;
39050;SDS011;24805;55.852;37.644;2023-07-16T08:13:07;3.58;;;3.03;;
39050;SDS011;24805;55.852;37.644;2023-07-16T08:18:09;5.13;;;3.30;;
39050;SDS011;24805;55.852;37.644;2023-07-16T08:23:11;4.70;;;2.65;;
39050;SDS011;24805;55.852;37.644;2023-07-16T08:28:14;4.57;;;3.08;;
39050;SDS011;24805;55.852;37.644;2023-07-16T08:33:16;4.00;;;2.85;;
39050;SDS011;24805;55.852;37.644;2023-07-16T08:38:19;4.78;;;3.03;;
39050;SDS011;24805;55.852;37.644;2023-07-16T08:43:21;3.40;;;3.10;;
39050;SDS011;24805;55.852;37.644;2023-07-16T08:48:23;3.65;;;2.63;;
39050;SDS011;24805;55.852;37.644;2023-07-16T08:53:26;3.78;;;2.55;;
39050;SDS011;24805;55.852;37.644;2023-07-16T08:58:29;2.40;;;2.17;;
39050;SDS011;24805;55.852;37.644;2023-07-16T09:03:32;2.33;;;1.67;;
39050;SDS011;24805;55.852;37.644;2023-07-16T09:08:34;4.15;;;1.83;;
39050;SDS011;24805;55.852;37.644;2023-07-16T09:13:37;1.65;;;1.40;;
39050;SDS011;24805;55.852;37.644;2023-07-16T09:18:39;1.85;;;1.33;;
39050;SDS011;24805;55.852;37.644;2023-07-16T09:23:43;2.75;;;1.55;;
39050;SDS011;24805;55.852;37.644;2023-07-16T09:28:47;1.60;;;1.40;;
39050;SDS011;24805;55.852;37.644;2023-07-16T09:33:51;1.75;;;1.20;;
39050;SDS011;24805;55.852;37.644;2023-07-16T09:38:53;1.50;;;1.13;;
39050;SDS011;24805;55.852;37.644;2023-07-16T09:43:56;2.28;;;1.20;;
39050;SDS011;24805;55.852;37.644;2023-07-16T09:48:58;1.60;;;1.10;;
39050;SDS011;24805;55.852;37.644;2023-07-16T09:54:01;3.00;;;1.40;;
39050;SDS011;24805;55.852;37.644;2023-07-16T09:59:11;2.00;;;1.17;;
39050;SDS011;24805;55.852;37.644;2023-07-16T10:04:18;1.75;;;1.20;;
39050;SDS011;24805;55.852;37.644;2023-07-16T10:09:35;2.13;;;1.02;;
39050;SDS011;24805;55.852;37.644;2023-07-16T10:14:45;1.25;;;0.93;;
39050;SDS011;24805;55.852;37.644;2023-07-16T10:20:08;1.52;;;1.13;;
39050;SDS011;24805;55.852;37.644;2023-07-16T10:30:20;2.55;;;1.20;;
39050;SDS011;24805;55.852;37.644;2023-07-16T10:35:22;4.35;;;1.02;;
39050;SDS011;24805;55.852;37.644;2023-07-16T10:40:24;1.05;;;0.80;;
39050;SDS011;24805;55.852;37.644;2023-07-16T10:45:26;2.95;;;1.10;;
39050;SDS011;24805;55.852;37.644;2023-07-16T10:50:33;1.83;;;1.25;;
39050;SDS011;24805;55.852;37.644;2023-07-16T10:55:36;2.53;;;0.98;;
39050;SDS011;24805;55.852;37.644;2023-07-16T11:00:39;2.25;;;0.98;;
39050;SDS011;24805;55.852;37.644;2023-07-16T11:05:44;1.52;;;1.00;;
39050;SDS011;24805;55.852;37.644;2023-07-16T11:10:57;1.38;;;1.00;;
39050;SDS011;24805;55.852;37.644;2023-07-16T11:16:09;2.33;;;1.05;;
39050;SDS011;24805;55.852;37.644;2023-07-16T11:21:11;2.05;;;0.90;;
39050;SDS011;24805;55.852;37.644;2023-07-16T11:26:14;1.35;;;0.88;;
39050;SDS011;24805;55.852;37.644;2023-07-16T11:31:17;1.80;;;1.08;;
39050;SDS011;24805;55.852;37.644;2023-07-16T11:36:20;2.13;;;1.25;;
39050;SDS011;24805;55.852;37.644;2023-07-16T11:41:23;2.53;;;1.15;;
39050;SDS011;24805;55.852;37.644;2023-07-16T11:46:25;2.33;;;0.90;;
39050;SDS011;24805;55.852;37.644;2023-07-16T11:51:27;2.63;;;1.02;;
39050;SDS011;24805;55.852;37.644;2023-07-16T11:56:29;1.42;;;1.10;;
39050;SDS011;24805;55.852;37.644;2023-07-16T12:01:31;5.10;;;1.00;;
39050;SDS011;24805;55.852;37.644;2023-07-16T12:06:34;1.15;;;0.90;;
39050;SDS011;24805;55.852;37.644;2023-07-16T12:11:37;2.22;;;1.05;;
39050;SDS011;24805;55.852;37.644;2023-07-16T12:16:40;2.28;;;1.15;;
39050;SDS011;24805;55.852;37.644;2023-07-16T12:21:42;3.05;;;1.30;;
39050;SDS011;24805;55.852;37.644;2023-07-16T12:26:44;1.80;;;1.10;;
39050;SDS011;24805;55.852;37.644;2023-07-16T12:31:47;6.68;;;1.63;;
39050;SDS011;24805;55.852;37.644;2023-07-16T12:36:49;2.13;;;1.33;;
39050;SDS011;24805;55.852;37.644;2023-07-16T12:41:52;2.58;;;1.38;;
39050;SDS011;24805;55.852;37.644;2023-07-16T12:46:55;2.10;;;1.33;;
39050;SDS011;24805;55.852;37.644;2023-07-16T12:51:57;2.38;;;1.30;;
39050;SDS011;24805;55.852;37.644;2023-07-16T12:56:59;3.00;;;1.33;;
39050;SDS011;24805;55.852;37.644;2023-07-16T13:02:01;3.17;;;1.60;;
39050;SDS011;24805;55.852;37.644;2023-07-16T13:07:04;3.05;;;1.30;;
39050;SDS011;24805;55.852;37.644;2023-07-16T13:12:07;1.88;;;1.15;;
39050;SDS011;24805;55.852;37.644;2023-07-16T13:17:09;2.33;;;1.50;;
39050;SDS011;24805;55.852;37.644;2023-07-16T13:22:12;2.70;;;1.60;;
39050;SDS011;24805;55.852;37.644;2023-07-16T13:27:19;3.55;;;1.30;;
39050;SDS011;24805;55.852;37.644;2023-07-16T13:32:23;4.18;;;1.40;;
39050;SDS011;24805;55.852;37.644;2023-07-16T13:37:25;1.90;;;1.48;;
39050;SDS011;24805;55.852;37.644;2023-07-16T13:42:27;3.30;;;1.58;;
39050;SDS011;24805;55.852;37.644;2023-07-16T13:47:29;3.40;;;2.00;;
39050;SDS011;24805;55.852;37.644;2023-07-16T13:52:31;3.58;;;1.40;;
39050;SDS011;24805;55.852;37.644;2023-07-16T13:57:34;3.28;;;2.00;;
39050;SDS011;24805;55.852;37.644;2023-07-16T14:02:36;2.33;;;1.58;;
39050;SDS011;24805;55.852;37.644;2023-07-16T14:07:38;3.25;;;1.95;;
39050;SDS011;24805;55.852;37.644;2023-07-16T14:12:40;3.50;;;2.17;;
39050;SDS011;24805;55.852;37.644;2023-07-16T14:17:43;2.95;;;2.28;;
39050;SDS011;24805;55.852;37.644;2023-07-16T14:22:45;3.58;;;1.95;;
39050;SDS011;24805;55.852;37.644;2023-07-16T14:27:47;2.53;;;2.08;;
39050;SDS011;24805;55.852;37.644;2023-07-16T14:32:49;2.30;;;1.90;;
39050;SDS011;24805;55.852;37.644;2023-07-16T14:37:52;1.80;;;1.50;;
39050;SDS011;24805;55.852;37.644;2023-07-16T14:42:54;4.90;;;2.72;;
39050;SDS011;24805;55.852;37.644;2023-07-16T14:47:56;5.90;;;1.77;;
39050;SDS011;24805;55.852;37.644;2023-07-16T14:52:58;5.70;;;2.05;;
39050;SDS011;24805;55.852;37.644;2023-07-16T14:58:00;3.20;;;1.63;;
39050;SDS011;24805;55.852;37.644;2023-07-16T15:03:04;2.47;;;1.67;;
39050;SDS011;24805;55.852;37.644;2023-07-16T15:08:07;2.53;;;1.63;;
39050;SDS011;24805;55.852;37.644;2023-07-16T15:13:10;3.42;;;1.33;;
39050;SDS011;24805;55.852;37.644;2023-07-16T15:18:13;3.78;;;1.75;;
39050;SDS011;24805;55.852;37.644;2023-07-16T15:23:16;4.03;;;1.95;;
39050;SDS011;24805;55.852;37.644;2023-07-16T15:28:18;4.18;;;1.67;;
39050;SDS011;24805;55.852;37.644;2023-07-16T15:33:20;4.00;;;1.58;;
39050;SDS011;24805;55.852;37.644;2023-07-16T15:38:23;3.00;;;1.95;;
39050;SDS011;24805;55.852;37.644;2023-07-16T15:43:26;2.55;;;1.85;;
39050;SDS011;24805;55.852;37.644;2023-07-16T15:48:28;2.72;;;1.90;;
39050;SDS011;24805;55.852;37.644;2023-07-16T15:53:31;4.05;;;2.15;;
39050;SDS011;24805;55.852;37.644;2023-07-16T15:58:33;4.38;;;2.08;;
39050;SDS011;24805;55.852;37.644;2023-07-16T16:03:35;3.25;;;2.00;;
39050;SDS011;24805;55.852;37.644;2023-07-16T16:08:37;2.72;;;1.98;;
39050;SDS011;24805;55.852;37.644;2023-07-16T16:13:40;3.13;;;1.73;;
39050;SDS011;24805;55.852;37.644;2023-07-16T16:18:42;3.60;;;2.13;;
39050;SDS011;24805;55.852;37.644;2023-07-16T16:23:44;4.03;;;2.33;;
39050;SDS011;24805;55.852;37.644;2023-07-16T16:28:46;6.93;;;2.38;;
39050;SDS011;24805;55.852;37.644;2023-07-16T16:33:48;8.52;;;3.28;;
39050;SDS011;24805;55.852;37.644;2023-07-16T16:38:51;5.30;;;2.75;;
39050;SDS011;24805;55.852;37.644;2023-07-16T16:43:54;4.68;;;2.30;;
39050;SDS011;24805;55.852;37.644;2023-07-16T16:48:56;2.72;;;2.47;;
39050;SDS011;24805;55.852;37.644;2023-07-16T16:53:59;2.80;;;2.30;;
39050;SDS011;24805;55.852;37.644;2023-07-16T16:59:01;5.05;;;2.65;;
39050;SDS011;24805;55.852;37.644;2023-07-16T17:04:04;3.30;;;2.13;;
39050;SDS011;24805;55.852;37.644;2023-07-16T17:09:06;3.86;;;2.59;;
39050;SDS011;24805;55.852;37.644;2023-07-16T17:14:09;3.53;;;2.42;;
39050;SDS011;24805;55.852;37.644;2023-07-16T17:19:11;4.55;;;2.60;;
39050;SDS011;24805;55.852;37.644;2023-07-16T17:24:13;3.58;;;2.42;;
39050;SDS011;24805;55.852;37.644;2023-07-16T17:29:15;5.13;;;2.95;;
39050;SDS011;24805;55.852;37.644;2023-07-16T17:34:18;6.25;;;3.10;;
39050;SDS011;24805;55.852;37.644;2023-07-16T17:39:20;5.30;;;2.50;;
39050;SDS011;24805;55.852;37.644;2023-07-16T17:44:22;4.22;;;3.13;;
39050;SDS011;24805;55.852;37.644;2023-07-16T17:49:24;7.82;;;3.08;;
39050;SDS011;24805;55.852;37.644;2023-07-16T17:54:26;7.18;;;3.10;;
39050;SDS011;24805;55.852;37.644;2023-07-16T17:59:29;4.72;;;3.55;;
39050;SDS011;24805;55.852;37.644;2023-07-16T18:04:32;4.63;;;3.45;;
39050;SDS011;24805;55.852;37.644;2023-07-16T18:09:34;7.43;;;3.63;;
39050;SDS011;24805;55.852;37.644;2023-07-16T18:14:37;6.70;;;4.05;;
39050;SDS011;24805;55.852;37.644;2023-07-16T18:19:39;7.97;;;4.40;;
39050;SDS011;24805;55.852;37.644;2023-07-16T18:24:42;5.78;;;3.83;;
39050;SDS011;24805;55.852;37.644;2023-07-16T18:29:44;5.35;;;4.07;;
39050;SDS011;24805;55.852;37.644;2023-07-16T18:34:46;9.85;;;4.55;;
39050;SDS011;24805;55.852;37.644;2023-07-16T18:39:52;8.60;;;4.10;;
39050;SDS011;24805;55.852;37.644;2023-07-16T18:44:55;8.10;;;5.25;;
39050;SDS011;24805;55.852;37.644;2023-07-16T18:50:06;9.68;;;4.78;;
39050;SDS011;24805;55.852;37.644;2023-07-16T18:55:11;7.13;;;5.20;;
39050;SDS011;24805;55.852;37.644;2023-07-16T19:00:13;9.88;;;5.00;;
39050;SDS011;24805;55.852;37.644;2023-07-16T19:05:18;8.05;;;4.15;;
39050;SDS011;24805;55.852;37.644;2023-07-16T19:10:20;8.55;;;5.07;;
39050;SDS011;24805;55.852;37.644;2023-07-16T19:15:23;8.23;;;5.18;;
39050;SDS011;24805;55.852;37.644;2023-07-16T19:20:25;5.63;;;4.90;;
39050;SDS011;24805;55.852;37.644;2023-07-16T19:25:28;10.10;;;5.07;;
39050;SDS011;24805;55.852;37.644;2023-07-16T19:30:32;8.52;;;5.10;;
39050;SDS011;24805;55.852;37.644;2023-07-16T19:35:34;9.15;;;5.57;;
39050;SDS011;24805;55.852;37.644;2023-07-16T19:40:37;8.10;;;5.78;;
39050;SDS011;24805;55.852;37.644;2023-07-16T19:45:43;7.25;;;5.50;;
39050;SDS011;24805;55.852;37.644;2023-07-16T19:50:46;9.32;;;5.60;;
39050;SDS011;24805;55.852;37.644;2023-07-16T19:55:50;8.35;;;5.68;;
39050;SDS011;24805;55.852;37.644;2023-07-16T20:00:52;7.97;;;6.40;;
39050;SDS011;24805;55.852;37.644;2023-07-16T20:05:54;10.63;;;6.65;;
39050;SDS011;24805;55.852;37.644;2023-07-16T20:10:56;11.43;;;6.40;;
39050;SDS011;24805;55.852;37.644;2023-07-16T20:15:59;8.90;;;6.70;;
39050;SDS011;24805;55.852;37.644;2023-07-16T20:21:01;9.00;;;6.70;;
39050;SDS011;24805;55.852;37.644;2023-07-16T20:26:03;9.60;;;6.72;;
39050;SDS011;24805;55.852;37.644;2023-07-16T20:31:06;10.13;;;7.22;;
39050;SDS011;24805;55.852;37.644;2023-07-16T20:36:08;10.13;;;6.95;;
39050;SDS011;24805;55.852;37.644;2023-07-16T20:41:10;12.00;;;7.38;;
39050;SDS011;24805;55.852;37.644;2023-07-16T20:46:12;12.05;;;7.30;;
39050;SDS011;24805;55.852;37.644;2023-07-16T20:51:16;7.57;;;6.78;;
39050;SDS011;24805;55.852;37.644;2023-07-16T20:56:18;10.23;;;7.30;;
39050;SDS011;24805;55.852;37.644;2023-07-16T21:01:20;12.77;;;8.23;;
39050;SDS011;24805;55.852;37.644;2023-07-16T21:06:23;9.60;;;7.60;;
39050;SDS011;24805;55.852;37.644;2023-07-16T21:11:25;10.43;;;8.20;;
39050;SDS011;24805;55.852;37.644;2023-07-16T21:16:27;9.45;;;8.18;;
39050;SDS011;24805;55.852;37.644;2023-07-16T21:21:29;17.48;;;13.48;;
39050;SDS011;24805;55.852;37.644;2023-07-16T21:26:31;9.73;;;7.90;;
39050;SDS011;24805;55.852;37.644;2023-07-16T21:31:33;16.05;;;8.80;;
39050;SDS011;24805;55.852;37.644;2023-07-16T21:36:36;9.85;;;8.60;;
39050;SDS011;24805;55.852;37.644;2023-07-16T21:41:38;12.25;;;9.02;;
39050;SDS011;24805;55.852;37.644;2023-07-16T21:46:40;13.00;;;8.38;;
39050;SDS011;24805;55.852;37.644;2023-07-16T21:51:42;10.50;;;8.07;;
39050;SDS011;24805;55.852;37.644;2023-07-16T21:56:45;13.63;;;7.90;;
39050;SDS011;24805;55.852;37.644;2023-07-16T22:01:48;10.40;;;7.60;;
39050;SDS011;24805;55.852;37.644;2023-07-16T22:06:50;10.65;;;7.13;;
39050;SDS011;24805;55.852;37.644;2023-07-16T22:11:52;13.60;;;7.90;;
39050;SDS011;24805;55.852;37.644;2023-07-16T22:16:54;10.13;;;8.18;;
39050;SDS011;24805;55.852;37.644;2023-07-16T22:21:57;12.40;;;8.75;;
39050;SDS011;24805;55.852;37.644;2023-07-16T22:26:59;17.33;;;7.75;;
39050;SDS011;24805;55.852;37.644;2023-07-16T22:32:01;17.42;;;9.48;;
39050;SDS011;24805;55.852;37.644;2023-07-16T22:37:04;10.65;;;8.18;;
39050;SDS011;24805;55.852;37.644;2023-07-16T22:42:07;13.48;;;8.07;;
39050;SDS011;24805;55.852;37.644;2023-07-16T22:47:10;11.38;;;7.95;;
39050;SDS011;24805;55.852;37.644;2023-07-16T22:52:12;11.27;;;7.90;;
39050;SDS011;24805;55.852;37.644;2023-07-16T22:57:14;14.85;;;8.18;;
39050;SDS011;24805;55.852;37.644;2023-07-16T23:02:17;11.93;;;8.13;;
39050;SDS011;24805;55.852;37.644;2023-07-16T23:07:19;12.75;;;7.32;;
39050;SDS011;24805;55.852;37.644;2023-07-16T23:12:22;9.60;;;7.57;;
39050;SDS011;24805;55.852;37.644;2023-07-16T23:17:24;10.10;;;7.90;;
39050;SDS011;24805;55.852;37.644;2023-07-16T23:22:26;9.57;;;7.72;;
39050;SDS011;24805;55.852;37.644;2023-07-16T23:27:29;12.57;;;7.65;;
39050;SDS011;24805;55.852;37.644;2023-07-16T23:32:31;12.82;;;8.38;;
39050;SDS011;24805;55.852;37.644;2023-07-16T23:37:33;13.63;;;8.50;;
39050;SDS011;24805;55.852;37.644;2023-07-16T23:42:35;13.02;;;8.25;;
39050;SDS011;24805;55.852;37.644;2023-07-16T23:47:37;11.52;;;7.65;;
39050;SDS011;24805;55.852;37.644;2023-07-16T23:52:39;12.52;;;8.18;;
39050;SDS011;24805;55.852;37.644;2023-07-16T23:57:41;11.98;;;7.40;;
